Time;durP1;ratioP1;P1;durP2;ratioP2;P2;SDS_P1;SDS_P2;PMS_P1;PMS_P2;Temp;Humidity;BMP_temperature;BMP_pressure;BME280_temperature;BME280_humidity;BME280_pressure;Samples;Min_cycle;Max_cycle;Signal;HPM_P1;HPM_P2
2024/03/27 00:02:10;;;;;;;8.57;3.83;;;;;;;;;;4947840;28;20086;-70
2024/03/27 00:04:36;;;;;;;10.00;4.13;;;;;;;;;;4952168;28;20560;-70
2024/03/27 00:07:03;;;;;;;7.85;3.83;;;;;;;;;;4957419;28;20062;-70
2024/03/27 00:09:29;;;;;;;13.63;5.28;;;;;;;;;;4960580;28;20122;-70
2024/03/27 00:11:55;;;;;;;9.70;4.53;;;;;;;;;;4942607;28;20119;-70
2024/03/27 00:14:21;;;;;;;18.90;4.47;;;;;;;;;;4944222;28;20046;-70
2024/03/27 00:16:48;;;;;;;10.30;4.80;;;;;;;;;;4941606;28;20043;-70
2024/03/27 00:19:14;;;;;;;8.18;4.13;;;;;;;;;;4958899;28;20091;-69
2024/03/27 00:21:40;;;;;;;8.88;4.55;;;;;;;;;;4958315;28;20091;-70
2024/03/27 00:24:06;;;;;;;7.72;4.10;;;;;;;;;;4943025;28;20125;-70
2024/03/27 00:26:33;;;;;;;9.32;5.57;;;;;;;;;;4939783;28;20061;-67
2024/03/27 00:29:00;;;;;;;12.70;5.40;;;;;;;;;;4940789;28;20053;-67
2024/03/27 00:31:28;;;;;;;8.48;4.97;;;;;;;;;;4960322;28;20038;-69
2024/03/27 00:33:55;;;;;;;7.88;4.10;;;;;;;;;;4947699;28;20073;-70
2024/03/27 00:36:21;;;;;;;8.25;4.15;;;;;;;;;;4958323;28;20043;-70
2024/03/27 00:38:48;;;;;;;8.48;4.50;;;;;;;;;;4960569;28;20089;-70
2024/03/27 00:41:14;;;;;;;11.35;5.63;;;;;;;;;;4944969;28;20053;-68
2024/03/27 00:43:40;;;;;;;9.73;4.68;;;;;;;;;;4956171;28;20043;-68
2024/03/27 00:46:06;;;;;;;8.30;4.80;;;;;;;;;;4955655;28;20494;-68
2024/03/27 00:48:33;;;;;;;8.65;4.28;;;;;;;;;;4942647;28;20141;-68
2024/03/27 00:50:59;;;;;;;9.00;4.60;;;;;;;;;;4958236;28;20601;-69
2024/03/27 00:53:26;;;;;;;7.93;4.53;;;;;;;;;;4941471;28;20049;-68
2024/03/27 00:55:56;;;;;;;11.43;5.20;;;;;;;;;;4940813;28;20038;-69
2024/03/27 00:58:23;;;;;;;10.93;4.97;;;;;;;;;;4938915;28;20786;-68
2024/03/27 01:00:49;;;;;;;8.90;5.60;;;;;;;;;;4943073;28;20454;-69
2024/03/27 01:03:16;;;;;;;8.45;4.65;;;;;;;;;;4941896;28;20051;-69
2024/03/27 01:05:42;;;;;;;9.63;5.03;;;;;;;;;;4942697;28;20077;-69
2024/03/27 01:08:09;;;;;;;8.88;5.03;;;;;;;;;;4944509;29;20475;-68
2024/03/27 01:10:36;;;;;;;10.23;4.85;;;;;;;;;;4943056;28;20102;-69
2024/03/27 01:13:02;;;;;;;8.27;4.90;;;;;;;;;;4942450;29;20047;-68
2024/03/27 01:15:29;;;;;;;7.32;5.00;;;;;;;;;;4939617;28;20057;-69
2024/03/27 01:17:55;;;;;;;7.78;4.55;;;;;;;;;;4943059;28;20495;-69
2024/03/27 01:20:22;;;;;;;10.77;4.80;;;;;;;;;;4941692;28;20055;-69
2024/03/27 01:22:49;;;;;;;10.23;5.53;;;;;;;;;;4939997;28;20068;-69
2024/03/27 01:25:15;;;;;;;10.93;4.97;;;;;;;;;;4937135;29;20062;-68
2024/03/27 01:27:41;;;;;;;10.95;5.07;;;;;;;;;;4936864;28;20066;-68
2024/03/27 01:30:08;;;;;;;9.57;4.70;;;;;;;;;;4952627;28;20048;-68
2024/03/27 01:32:34;;;;;;;9.15;4.93;;;;;;;;;;4936855;28;20649;-68
2024/03/27 01:35:01;;;;;;;11.00;4.70;;;;;;;;;;4954781;28;20102;-68
2024/03/27 01:37:27;;;;;;;9.73;4.95;;;;;;;;;;4938452;28;20145;-68
2024/03/27 01:39:53;;;;;;;11.30;4.63;;;;;;;;;;4938641;29;20050;-68
2024/03/27 01:42:19;;;;;;;8.73;4.75;;;;;;;;;;4958162;28;20047;-68
2024/03/27 01:44:45;;;;;;;10.05;5.10;;;;;;;;;;4944094;29;20039;-68
2024/03/27 01:47:12;;;;;;;10.82;4.40;;;;;;;;;;4947768;28;20058;-68
2024/03/27 01:49:39;;;;;;;8.52;4.32;;;;;;;;;;4947329;29;20043;-68
2024/03/27 01:52:06;;;;;;;9.38;4.60;;;;;;;;;;4946002;29;20043;-68
2024/03/27 01:54:33;;;;;;;10.02;4.85;;;;;;;;;;4947070;28;20055;-68
2024/03/27 01:56:59;;;;;;;10.15;4.55;;;;;;;;;;4946308;29;20043;-68
2024/03/27 01:59:26;;;;;;;7.45;4.32;;;;;;;;;;4943761;29;20466;-68
2024/03/27 02:01:53;;;;;;;10.45;5.10;;;;;;;;;;4941243;29;20563;-69
2024/03/27 02:04:20;;;;;;;10.57;5.38;;;;;;;;;;4943072;29;20046;-68
2024/03/27 02:06:46;;;;;;;7.07;4.82;;;;;;;;;;4955657;28;20071;-68
2024/03/27 02:09:12;;;;;;;9.27;4.68;;;;;;;;;;4942350;28;20055;-68
2024/03/27 02:11:40;;;;;;;10.55;4.80;;;;;;;;;;4936105;28;20047;-68
2024/03/27 02:14:06;;;;;;;11.65;4.95;;;;;;;;;;4947204;29;20400;-68
2024/03/27 02:16:32;;;;;;;8.57;5.05;;;;;;;;;;4941317;28;20054;-68
2024/03/27 02:18:59;;;;;;;11.30;5.13;;;;;;;;;;4942412;29;20122;-68
2024/03/27 02:21:25;;;;;;;12.27;5.43;;;;;;;;;;4942598;28;20421;-68
2024/03/27 02:24:09;;;;;;;7.85;4.65;;;;;;;;;;4956495;28;20054;-68
2024/03/27 02:26:35;;;;;;;7.22;4.47;;;;;;;;;;4941456;29;20107;-68
2024/03/27 02:29:02;;;;;;;8.20;4.45;;;;;;;;;;4955784;28;20580;-68
2024/03/27 02:31:29;;;;;;;10.15;4.57;;;;;;;;;;4939531;28;20059;-68
2024/03/27 02:33:55;;;;;;;8.57;5.15;;;;;;;;;;4944873;28;20499;-68
2024/03/27 02:39:43;;;;;;;9.80;4.75;;;;;;;;;;4949870;29;20177;-68
2024/03/27 02:42:10;;;;;;;11.52;5.03;;;;;;;;;;4949639;29;20531;-68
2024/03/27 02:44:36;;;;;;;14.75;6.07;;;;;;;;;;4940552;29;20118;-68
2024/03/27 02:47:02;;;;;;;12.07;5.30;;;;;;;;;;4958816;28;20166;-68
2024/03/27 02:49:28;;;;;;;10.90;5.57;;;;;;;;;;4943240;28;20039;-68
2024/03/27 02:51:55;;;;;;;8.55;5.47;;;;;;;;;;4944912;29;20075;-68
2024/03/27 02:54:21;;;;;;;9.95;5.78;;;;;;;;;;4960801;28;20039;-68
2024/03/27 02:56:47;;;;;;;12.00;5.32;;;;;;;;;;4961426;28;20057;-68
2024/03/27 02:59:14;;;;;;;11.88;5.47;;;;;;;;;;4945668;28;20043;-68
2024/03/27 03:01:40;;;;;;;11.75;5.03;;;;;;;;;;4946324;28;20059;-68
2024/03/27 03:04:07;;;;;;;9.23;5.40;;;;;;;;;;4943394;29;20127;-69
2024/03/27 03:06:36;;;;;;;11.75;5.18;;;;;;;;;;4955782;28;20495;-68
2024/03/27 03:09:02;;;;;;;9.15;4.90;;;;;;;;;;4963125;28;20042;-69
2024/03/27 03:11:28;;;;;;;8.68;5.10;;;;;;;;;;4948141;28;20094;-69
2024/03/27 03:13:54;;;;;;;12.63;5.72;;;;;;;;;;4948418;28;20505;-68
2024/03/27 03:16:20;;;;;;;12.18;5.97;;;;;;;;;;4956439;28;20038;-68
2024/03/27 03:18:48;;;;;;;12.90;5.63;;;;;;;;;;4963956;28;20130;-68
2024/03/27 03:21:14;;;;;;;11.18;5.75;;;;;;;;;;4943932;28;20121;-69
2024/03/27 03:23:40;;;;;;;12.13;6.00;;;;;;;;;;4948071;28;20049;-69
2024/03/27 03:26:06;;;;;;;13.10;6.50;;;;;;;;;;4944516;28;20114;-69
2024/03/27 03:28:32;;;;;;;13.40;6.10;;;;;;;;;;4964576;28;20505;-68
2024/03/27 03:31:02;;;;;;;10.82;5.95;;;;;;;;;;4962394;28;20131;-68
2024/03/27 03:33:29;;;;;;;11.35;5.32;;;;;;;;;;4963738;28;20134;-68
2024/03/27 03:35:56;;;;;;;11.95;5.93;;;;;;;;;;4946329;28;20057;-68
2024/03/27 03:38:22;;;;;;;12.50;6.35;;;;;;;;;;4959954;28;20055;-68
2024/03/27 03:40:50;;;;;;;13.05;6.78;;;;;;;;;;4958908;28;20047;-68
2024/03/27 03:43:16;;;;;;;9.05;5.82;;;;;;;;;;4957553;28;20055;-69
2024/03/27 03:45:43;;;;;;;10.10;5.63;;;;;;;;;;4941774;28;20075;-69
2024/03/27 03:48:10;;;;;;;12.52;5.65;;;;;;;;;;4953962;28;20107;-68
2024/03/27 03:50:36;;;;;;;10.77;5.75;;;;;;;;;;4962773;28;20072;-69
2024/03/27 03:53:02;;;;;;;9.55;5.55;;;;;;;;;;4963309;28;20043;-69
2024/03/27 03:55:29;;;;;;;10.68;5.45;;;;;;;;;;4960211;28;20034;-69
2024/03/27 03:57:55;;;;;;;9.25;5.30;;;;;;;;;;4940359;28;20055;-69
2024/03/27 04:00:22;;;;;;;12.88;6.05;;;;;;;;;;4938947;28;20058;-69
2024/03/27 04:02:48;;;;;;;11.73;5.93;;;;;;;;;;4935420;28;20494;-69
2024/03/27 04:05:15;;;;;;;8.73;4.68;;;;;;;;;;4961377;28;20054;-68
2024/03/27 04:07:41;;;;;;;11.27;6.07;;;;;;;;;;4941280;28;20133;-68
2024/03/27 04:10:08;;;;;;;11.25;5.40;;;;;;;;;;4939626;28;20525;-68
2024/03/27 04:12:34;;;;;;;11.98;7.63;;;;;;;;;;4959265;28;20046;-69
2024/03/27 04:15:00;;;;;;;13.25;6.63;;;;;;;;;;4941275;28;20043;-68
2024/03/27 04:17:26;;;;;;;12.40;6.85;;;;;;;;;;4959609;28;20553;-69
2024/03/27 04:19:52;;;;;;;10.07;5.85;;;;;;;;;;4922204;28;20093;-68
2024/03/27 04:22:18;;;;;;;9.50;5.90;;;;;;;;;;4949262;28;20047;-69
2024/03/27 04:24:45;;;;;;;9.75;6.55;;;;;;;;;;4942821;28;20047;-68
2024/03/27 04:27:12;;;;;;;12.18;6.07;;;;;;;;;;4961530;28;20042;-69
2024/03/27 04:29:39;;;;;;;10.88;6.32;;;;;;;;;;4949009;28;20050;-68
2024/03/27 04:32:05;;;;;;;12.00;5.88;;;;;;;;;;4957976;28;20534;-69
2024/03/27 04:34:32;;;;;;;10.27;6.30;;;;;;;;;;4957817;28;20134;-69
2024/03/27 04:36:58;;;;;;;12.20;5.15;;;;;;;;;;4956650;28;20411;-68
2024/03/27 04:39:24;;;;;;;8.77;5.10;;;;;;;;;;4941350;28;20034;-69
2024/03/27 04:41:52;;;;;;;8.88;5.70;;;;;;;;;;4959662;28;20046;-68
2024/03/27 04:44:18;;;;;;;10.63;5.47;;;;;;;;;;4940270;28;20043;-69
2024/03/27 04:46:45;;;;;;;9.10;5.75;;;;;;;;;;4940390;28;20054;-68
2024/03/27 04:49:11;;;;;;;8.48;5.50;;;;;;;;;;4941661;28;20043;-69
2024/03/27 04:51:37;;;;;;;10.00;5.55;;;;;;;;;;4959163;28;20105;-68
2024/03/27 04:54:04;;;;;;;9.73;4.97;;;;;;;;;;4941670;28;20462;-69
2024/03/27 04:56:31;;;;;;;8.50;5.25;;;;;;;;;;4948352;28;20071;-69
2024/03/27 04:58:58;;;;;;;10.35;5.22;;;;;;;;;;4940860;28;20074;-71
2024/03/27 05:01:24;;;;;;;10.23;5.35;;;;;;;;;;4944623;28;20057;-68
2024/03/27 05:03:50;;;;;;;10.07;5.38;;;;;;;;;;4942896;28;20074;-69
2024/03/27 05:06:16;;;;;;;7.88;4.90;;;;;;;;;;4944237;28;20051;-69
2024/03/27 05:08:42;;;;;;;12.55;5.40;;;;;;;;;;4943526;28;20054;-68
2024/03/27 05:11:10;;;;;;;12.23;4.95;;;;;;;;;;4922536;28;20118;-68
2024/03/27 05:13:36;;;;;;;12.68;6.00;;;;;;;;;;4943683;28;20077;-68
2024/03/27 05:16:02;;;;;;;10.50;5.20;;;;;;;;;;4945466;28;20039;-68
2024/03/27 05:18:28;;;;;;;11.40;5.60;;;;;;;;;;4951704;28;20134;-69
2024/03/27 05:20:56;;;;;;;10.55;5.32;;;;;;;;;;4960861;28;20184;-69
2024/03/27 05:23:22;;;;;;;10.68;4.97;;;;;;;;;;4963579;28;20050;-69
2024/03/27 05:25:48;;;;;;;9.50;5.00;;;;;;;;;;4950443;28;20146;-69
2024/03/27 05:28:15;;;;;;;8.80;5.25;;;;;;;;;;4964291;28;20138;-69
2024/03/27 05:30:41;;;;;;;10.57;5.28;;;;;;;;;;4958928;28;20039;-68
2024/03/27 05:33:07;;;;;;;8.85;4.80;;;;;;;;;;4957998;28;20048;-68
2024/03/27 05:35:33;;;;;;;8.05;4.53;;;;;;;;;;4953813;28;20058;-69
2024/03/27 05:38:00;;;;;;;9.48;5.05;;;;;;;;;;4959846;28;20399;-69
2024/03/27 05:40:27;;;;;;;11.73;5.05;;;;;;;;;;4959846;28;20078;-69
2024/03/27 05:42:53;;;;;;;8.45;4.85;;;;;;;;;;4962584;28;20464;-69
2024/03/27 05:45:19;;;;;;;7.90;4.50;;;;;;;;;;4948691;28;20149;-69
2024/03/27 05:47:45;;;;;;;10.43;5.10;;;;;;;;;;4930729;28;20459;-68
2024/03/27 05:50:11;;;;;;;9.65;5.38;;;;;;;;;;4959415;28;20116;-68
2024/03/27 05:52:38;;;;;;;10.02;4.90;;;;;;;;;;4961198;28;20047;-69
2024/03/27 05:55:04;;;;;;;8.82;4.53;;;;;;;;;;4946911;28;20049;-69
2024/03/27 05:57:30;;;;;;;9.18;5.00;;;;;;;;;;4947032;28;20112;-69
2024/03/27 05:59:57;;;;;;;10.15;5.13;;;;;;;;;;4949788;28;20541;-69
2024/03/27 06:02:23;;;;;;;11.40;5.90;;;;;;;;;;4963035;28;20101;-68
2024/03/27 06:04:50;;;;;;;9.88;6.15;;;;;;;;;;4964425;28;20126;-68
2024/03/27 06:07:16;;;;;;;10.35;5.50;;;;;;;;;;4943435;28;20051;-69
2024/03/27 06:09:44;;;;;;;8.95;5.32;;;;;;;;;;4944589;28;20130;-69
2024/03/27 06:12:11;;;;;;;10.05;5.28;;;;;;;;;;4960697;28;20051;-69
2024/03/27 06:14:38;;;;;;;12.60;4.93;;;;;;;;;;4961175;28;20188;-69
2024/03/27 06:17:05;;;;;;;10.50;4.60;;;;;;;;;;4961702;28;20053;-71
2024/03/27 06:19:31;;;;;;;12.07;4.88;;;;;;;;;;4963215;28;20403;-71
2024/03/27 06:21:57;;;;;;;10.63;5.15;;;;;;;;;;4951298;28;20053;-68
2024/03/27 06:24:23;;;;;;;8.40;5.05;;;;;;;;;;4960983;28;20046;-68
2024/03/27 06:26:49;;;;;;;8.95;4.85;;;;;;;;;;4968754;28;20463;-68
2024/03/27 06:29:15;;;;;;;12.90;4.60;;;;;;;;;;4949456;28;20594;-68
2024/03/27 06:31:42;;;;;;;8.40;5.43;;;;;;;;;;4952208;28;20047;-68
2024/03/27 06:34:08;;;;;;;11.75;5.00;;;;;;;;;;4950478;28;20054;-68
2024/03/27 06:36:34;;;;;;;8.82;4.78;;;;;;;;;;4952678;28;20643;-67
2024/03/27 06:39:00;;;;;;;9.02;5.18;;;;;;;;;;4966400;28;20158;-68
2024/03/27 06:41:27;;;;;;;11.38;4.93;;;;;;;;;;4966952;28;20043;-68
2024/03/27 06:43:53;;;;;;;8.13;4.85;;;;;;;;;;4951395;28;20481;-68
2024/03/27 06:46:20;;;;;;;10.60;5.50;;;;;;;;;;4951853;28;20603;-68
2024/03/27 06:48:56;;;;;;;9.05;5.03;;;;;;;;;;4946880;28;20121;-66
2024/03/27 06:51:23;;;;;;;10.77;5.45;;;;;;;;;;4942619;28;20411;-68
2024/03/27 06:53:49;;;;;;;8.82;5.72;;;;;;;;;;4947380;28;20354;-68
2024/03/27 06:56:15;;;;;;;13.32;6.05;;;;;;;;;;4947039;28;20185;-67
2024/03/27 06:58:41;;;;;;;13.85;6.13;;;;;;;;;;4964928;28;20055;-68
2024/03/27 07:01:07;;;;;;;10.77;5.53;;;;;;;;;;4964111;28;20483;-69
2024/03/27 07:03:34;;;;;;;10.52;5.70;;;;;;;;;;4961236;28;20035;-68
2024/03/27 07:06:00;;;;;;;9.82;5.07;;;;;;;;;;4947421;28;20042;-68
2024/03/27 07:08:26;;;;;;;9.55;5.35;;;;;;;;;;4963294;28;20039;-68
2024/03/27 07:11:03;;;;;;;10.30;5.53;;;;;;;;;;4943519;28;20120;-68
2024/03/27 07:13:30;;;;;;;10.82;5.60;;;;;;;;;;4963480;28;20043;-68
2024/03/27 07:15:56;;;;;;;11.85;6.22;;;;;;;;;;4964025;28;20403;-68
2024/03/27 07:18:22;;;;;;;9.88;5.35;;;;;;;;;;4946280;28;20042;-67
2024/03/27 07:20:55;;;;;;;10.73;5.82;;;;;;;;;;4961425;28;20055;-67
2024/03/27 07:23:22;;;;;;;11.73;6.43;;;;;;;;;;4966292;28;20051;-67
2024/03/27 07:25:48;;;;;;;11.35;5.80;;;;;;;;;;4966544;28;20137;-67
2024/03/27 07:28:14;;;;;;;11.93;5.85;;;;;;;;;;4947830;28;20530;-67
2024/03/27 07:30:41;;;;;;;9.82;5.80;;;;;;;;;;4947703;28;20043;-68
2024/03/27 07:33:07;;;;;;;10.70;6.00;;;;;;;;;;4945979;28;20074;-67
2024/03/27 07:35:33;;;;;;;11.30;5.80;;;;;;;;;;4950433;28;20132;-68
2024/03/27 07:37:59;;;;;;;14.98;6.78;;;;;;;;;;4959646;28;20117;-67
2024/03/27 07:40:27;;;;;;;9.93;5.40;;;;;;;;;;4958504;28;20120;-67
2024/03/27 07:42:53;;;;;;;11.75;5.30;;;;;;;;;;4944761;28;20121;-67
2024/03/27 07:45:19;;;;;;;11.05;5.70;;;;;;;;;;4942328;28;20148;-67
2024/03/27 07:47:47;;;;;;;10.70;6.65;;;;;;;;;;4962031;28;20399;-67
2024/03/27 07:50:13;;;;;;;9.35;6.07;;;;;;;;;;4947225;28;20039;-67
2024/03/27 07:52:39;;;;;;;8.60;5.47;;;;;;;;;;4953492;28;20363;-67
2024/03/27 07:55:07;;;;;;;10.32;5.72;;;;;;;;;;4948249;28;20038;-66
2024/03/27 07:57:34;;;;;;;11.38;5.53;;;;;;;;;;4965882;28;20043;-67
2024/03/27 08:00:00;;;;;;;10.70;5.20;;;;;;;;;;4949158;28;20466;-67
2024/03/27 08:02:26;;;;;;;9.32;5.53;;;;;;;;;;4945752;28;20055;-66
2024/03/27 08:04:53;;;;;;;8.60;4.90;;;;;;;;;;4965727;28;20043;-68
2024/03/27 08:07:19;;;;;;;9.68;5.05;;;;;;;;;;4945068;28;20420;-67
2024/03/27 08:09:50;;;;;;;9.10;5.22;;;;;;;;;;4943948;28;20107;-68
2024/03/27 08:12:17;;;;;;;9.43;4.97;;;;;;;;;;4944660;28;20453;-69
2024/03/27 08:14:44;;;;;;;9.43;5.13;;;;;;;;;;4947798;28;20035;-68
2024/03/27 08:17:10;;;;;;;9.60;4.93;;;;;;;;;;4942900;28;20660;-68
2024/03/27 08:19:40;;;;;;;8.55;5.10;;;;;;;;;;4938091;29;20167;-69
2024/03/27 08:22:06;;;;;;;10.05;5.30;;;;;;;;;;4945941;28;20283;-69
2024/03/27 08:24:33;;;;;;;10.30;5.22;;;;;;;;;;4946021;28;20400;-67
2024/03/27 08:26:59;;;;;;;10.15;5.60;;;;;;;;;;4937085;28;20069;-67
2024/03/27 08:29:25;;;;;;;8.88;5.60;;;;;;;;;;4943982;28;20059;-68
2024/03/27 08:31:51;;;;;;;9.18;5.80;;;;;;;;;;4943494;28;20424;-67
2024/03/27 08:34:18;;;;;;;12.13;6.07;;;;;;;;;;4941741;28;20086;-67
2024/03/27 08:36:44;;;;;;;9.60;5.68;;;;;;;;;;4937912;28;20047;-67
2024/03/27 08:39:10;;;;;;;11.63;5.95;;;;;;;;;;4942718;28;20132;-68
2024/03/27 08:41:37;;;;;;;11.45;6.45;;;;;;;;;;4941409;28;20082;-67
2024/03/27 08:44:03;;;;;;;9.70;5.97;;;;;;;;;;4944367;28;20066;-67
2024/03/27 08:46:30;;;;;;;9.68;6.22;;;;;;;;;;4937944;28;20384;-67
2024/03/27 08:48:56;;;;;;;11.05;5.57;;;;;;;;;;4941119;28;20075;-67
2024/03/27 08:51:23;;;;;;;12.88;5.75;;;;;;;;;;4941887;28;20051;-67
2024/03/27 08:53:50;;;;;;;12.98;6.07;;;;;;;;;;4942489;28;20051;-68
2024/03/27 08:56:16;;;;;;;8.63;4.82;;;;;;;;;;4941298;28;20529;-69
2024/03/27 08:58:43;;;;;;;10.27;5.43;;;;;;;;;;4957209;28;20130;-67
2024/03/27 09:01:16;;;;;;;8.85;5.30;;;;;;;;;;4943193;28;20066;-67
2024/03/27 09:03:42;;;;;;;15.55;7.13;;;;;;;;;;4946399;28;20257;-67
2024/03/27 09:06:09;;;;;;;13.57;6.25;;;;;;;;;;4939604;28;20058;-67
2024/03/27 09:08:36;;;;;;;12.30;5.00;;;;;;;;;;4937439;28;20418;-67
2024/03/27 09:11:03;;;;;;;12.38;5.40;;;;;;;;;;4939487;28;20086;-67
2024/03/27 09:13:29;;;;;;;10.63;5.07;;;;;;;;;;4942274;28;20088;-68
2024/03/27 09:15:58;;;;;;;13.02;4.43;;;;;;;;;;4942484;28;20130;-67
2024/03/27 09:18:25;;;;;;;13.70;2.92;;;;;;;;;;4938362;28;20050;-67
2024/03/27 09:20:52;;;;;;;11.57;2.30;;;;;;;;;;4943247;29;20095;-67
2024/03/27 09:23:18;;;;;;;8.85;2.42;;;;;;;;;;4943508;29;20134;-67
2024/03/27 09:25:53;;;;;;;6.60;1.95;;;;;;;;;;4940014;29;20040;-67
2024/03/27 09:28:20;;;;;;;12.25;2.10;;;;;;;;;;4941461;29;20101;-67
2024/03/27 09:30:46;;;;;;;8.93;1.70;;;;;;;;;;4943256;28;20075;-66
2024/03/27 09:33:13;;;;;;;11.45;2.90;;;;;;;;;;4944344;29;20090;-66
2024/03/27 09:35:41;;;;;;;12.00;2.10;;;;;;;;;;4934884;29;20059;-67
2024/03/27 09:38:07;;;;;;;8.25;2.38;;;;;;;;;;4941468;29;20047;-67
2024/03/27 09:40:39;;;;;;;11.07;2.05;;;;;;;;;;4941281;29;20376;-67
2024/03/27 09:43:05;;;;;;;10.02;2.00;;;;;;;;;;4942237;29;20081;-67
2024/03/27 09:45:33;;;;;;;13.32;2.28;;;;;;;;;;4939409;28;20420;-67
2024/03/27 09:47:59;;;;;;;11.38;2.70;;;;;;;;;;4943147;28;20052;-67
2024/03/27 09:50:26;;;;;;;7.72;2.47;;;;;;;;;;4945460;28;20050;-67
2024/03/27 09:52:52;;;;;;;12.57;2.85;;;;;;;;;;4940902;29;20411;-67
2024/03/27 09:55:19;;;;;;;11.93;2.40;;;;;;;;;;4943511;28;20102;-67
2024/03/27 09:57:45;;;;;;;8.07;2.20;;;;;;;;;;4944574;28;20035;-67
2024/03/27 10:00:12;;;;;;;7.90;2.72;;;;;;;;;;4947079;28;20050;-66
2024/03/27 10:02:38;;;;;;;11.18;3.20;;;;;;;;;;4943309;28;20051;-67
2024/03/27 10:05:05;;;;;;;10.95;3.25;;;;;;;;;;4950806;28;20674;-67
2024/03/27 10:07:31;;;;;;;11.45;2.70;;;;;;;;;;4962912;28;20125;-67
2024/03/27 10:09:58;;;;;;;8.23;3.30;;;;;;;;;;4950376;28;20394;-67
2024/03/27 10:12:24;;;;;;;9.25;4.13;;;;;;;;;;4961865;28;20070;-67
2024/03/27 10:14:50;;;;;;;10.70;3.90;;;;;;;;;;4947865;28;20066;-67
2024/03/27 10:17:17;;;;;;;10.55;5.05;;;;;;;;;;4962026;28;20473;-67
2024/03/27 10:19:43;;;;;;;13.85;5.40;;;;;;;;;;4965587;28;20150;-67
2024/03/27 10:22:09;;;;;;;12.20;6.07;;;;;;;;;;4943292;28;20137;-67
2024/03/27 10:24:36;;;;;;;11.13;6.68;;;;;;;;;;4956667;28;20542;-67
2024/03/27 10:27:02;;;;;;;12.90;5.95;;;;;;;;;;4962488;28;20498;-67
2024/03/27 10:29:28;;;;;;;14.75;6.05;;;;;;;;;;4964904;28;20393;-67
2024/03/27 10:31:56;;;;;;;14.77;6.07;;;;;;;;;;4949266;28;20155;-67
2024/03/27 10:34:22;;;;;;;13.43;5.50;;;;;;;;;;4967429;28;20051;-67
2024/03/27 10:36:50;;;;;;;9.57;4.45;;;;;;;;;;4966287;28;20093;-67
2024/03/27 10:39:17;;;;;;;10.60;4.70;;;;;;;;;;4952926;28;20122;-67
2024/03/27 10:41:44;;;;;;;13.90;5.40;;;;;;;;;;4946392;28;20114;-66
2024/03/27 10:44:12;;;;;;;12.50;4.53;;;;;;;;;;4948627;28;20390;-82
2024/03/27 10:46:40;;;;;;;10.25;5.45;;;;;;;;;;4949660;28;20081;-79
2024/03/27 10:49:07;;;;;;;14.35;6.32;;;;;;;;;;4951236;28;20067;-66
2024/03/27 10:51:34;;;;;;;12.75;5.72;;;;;;;;;;4950955;28;20039;-66
2024/03/27 10:54:00;;;;;;;14.68;6.50;;;;;;;;;;4969095;28;20105;-66
2024/03/27 10:56:26;;;;;;;12.07;5.93;;;;;;;;;;4950922;28;20055;-67
2024/03/27 10:58:54;;;;;;;16.85;6.43;;;;;;;;;;4968820;28;20054;-66
2024/03/27 11:01:22;;;;;;;11.93;6.07;;;;;;;;;;4964536;28;20046;-67
2024/03/27 11:03:52;;;;;;;13.50;6.00;;;;;;;;;;4967361;28;20343;-67
2024/03/27 11:06:18;;;;;;;14.75;5.78;;;;;;;;;;4962509;28;20118;-67
2024/03/27 11:08:44;;;;;;;12.50;5.50;;;;;;;;;;4966729;28;20047;-82
2024/03/27 11:11:12;;;;;;;12.77;5.30;;;;;;;;;;4962863;28;20137;-66
2024/03/27 11:13:39;;;;;;;13.30;5.35;;;;;;;;;;4968883;28;20478;-67
2024/03/27 11:16:11;;;;;;;12.60;5.55;;;;;;;;;;4966523;28;20126;-66
2024/03/27 11:18:37;;;;;;;15.52;5.90;;;;;;;;;;4965803;28;20035;-66
2024/03/27 11:21:04;;;;;;;10.90;5.35;;;;;;;;;;4962774;28;20039;-66
2024/03/27 11:23:32;;;;;;;16.35;6.78;;;;;;;;;;4963559;28;20081;-66
2024/03/27 11:26:00;;;;;;;14.70;6.03;;;;;;;;;;4964699;28;20149;-67
2024/03/27 11:28:27;;;;;;;24.13;7.70;;;;;;;;;;4965644;28;20439;-67
2024/03/27 11:30:55;;;;;;;13.27;5.97;;;;;;;;;;4965326;28;20047;-66
2024/03/27 11:33:21;;;;;;;11.57;6.47;;;;;;;;;;4965975;28;20130;-65
2024/03/27 11:35:49;;;;;;;17.00;6.22;;;;;;;;;;4963717;28;20043;-67
2024/03/27 11:38:17;;;;;;;12.98;5.38;;;;;;;;;;4963187;28;20043;-67
2024/03/27 11:40:43;;;;;;;15.40;5.78;;;;;;;;;;4965130;28;20500;-67
2024/03/27 11:43:09;;;;;;;11.95;5.47;;;;;;;;;;4949951;28;20487;-67
2024/03/27 11:45:37;;;;;;;9.57;5.32;;;;;;;;;;4963375;28;20043;-68
2024/03/27 11:48:03;;;;;;;11.07;5.95;;;;;;;;;;4968751;28;20411;-68
2024/03/27 11:50:30;;;;;;;13.85;6.05;;;;;;;;;;4963380;28;20105;-68
2024/03/27 11:52:57;;;;;;;9.73;5.93;;;;;;;;;;4962714;28;20062;-68
2024/03/27 11:55:23;;;;;;;12.73;7.10;;;;;;;;;;4955187;28;20067;-68
2024/03/27 11:57:49;;;;;;;17.90;8.70;;;;;;;;;;4966751;28;20463;-68
2024/03/27 12:00:15;;;;;;;17.95;9.80;;;;;;;;;;4945926;28;20141;-68
2024/03/27 12:02:41;;;;;;;20.27;11.57;;;;;;;;;;4965756;28;20043;-77
2024/03/27 12:05:08;;;;;;;16.55;11.27;;;;;;;;;;4949028;28;20125;-67
2024/03/27 12:07:35;;;;;;;14.25;10.30;;;;;;;;;;4955581;28;20098;-67
2024/03/27 12:10:03;;;;;;;16.95;11.70;;;;;;;;;;4947102;28;20138;-67
2024/03/27 12:12:30;;;;;;;17.45;12.00;;;;;;;;;;4949672;28;20057;-68
2024/03/27 12:14:57;;;;;;;17.98;12.35;;;;;;;;;;4948219;28;20051;-67
2024/03/27 12:17:24;;;;;;;23.83;12.70;;;;;;;;;;4967442;28;20082;-67
2024/03/27 12:19:51;;;;;;;13.88;10.98;;;;;;;;;;4946602;28;20198;-67
2024/03/27 12:22:18;;;;;;;16.42;10.95;;;;;;;;;;4957374;28;20081;-67
2024/03/27 12:24:44;;;;;;;18.42;10.80;;;;;;;;;;4964939;28;20043;-67
2024/03/27 12:27:11;;;;;;;14.50;9.85;;;;;;;;;;4961080;28;20375;-67
2024/03/27 12:29:37;;;;;;;12.68;9.60;;;;;;;;;;4966173;28;20134;-66
2024/03/27 12:32:04;;;;;;;12.88;10.00;;;;;;;;;;4950142;28;20388;-66
2024/03/27 12:34:31;;;;;;;13.93;10.63;;;;;;;;;;4966879;28;20149;-66
2024/03/27 12:37:00;;;;;;;13.48;8.40;;;;;;;;;;4967502;28;20047;-66
2024/03/27 12:39:26;;;;;;;15.80;9.02;;;;;;;;;;4950913;28;20050;-66
2024/03/27 12:41:52;;;;;;;14.73;9.27;;;;;;;;;;4965189;28;20039;-66
2024/03/27 12:44:18;;;;;;;16.02;10.95;;;;;;;;;;4968657;28;20078;-66
2024/03/27 12:46:45;;;;;;;18.45;11.23;;;;;;;;;;4967894;28;20125;-66
2024/03/27 12:49:11;;;;;;;14.40;11.02;;;;;;;;;;4965955;28;20057;-66
2024/03/27 12:51:37;;;;;;;17.02;10.85;;;;;;;;;;4951115;28;20053;-67
2024/03/27 12:54:03;;;;;;;14.13;9.98;;;;;;;;;;4950481;28;20538;-66
2024/03/27 12:56:30;;;;;;;12.77;9.48;;;;;;;;;;4967147;28;20035;-67
2024/03/27 12:58:56;;;;;;;15.65;9.85;;;;;;;;;;4947863;28;20467;-66
2024/03/27 13:01:23;;;;;;;13.25;8.82;;;;;;;;;;4968172;28;20061;-66
2024/03/27 13:03:49;;;;;;;11.10;7.88;;;;;;;;;;4967503;28;20050;-66
2024/03/27 13:06:15;;;;;;;11.30;8.02;;;;;;;;;;4967225;28;20109;-67
2024/03/27 13:08:41;;;;;;;10.23;6.57;;;;;;;;;;4967915;28;20372;-66
2024/03/27 13:11:07;;;;;;;10.32;6.60;;;;;;;;;;4950703;28;20113;-66
2024/03/27 13:13:34;;;;;;;10.98;7.00;;;;;;;;;;4942814;28;20050;-67
2024/03/27 13:16:00;;;;;;;10.93;7.00;;;;;;;;;;4949369;28;20186;-66
2024/03/27 13:18:27;;;;;;;9.00;6.40;;;;;;;;;;4948100;28;20047;-67
2024/03/27 13:20:53;;;;;;;7.93;5.68;;;;;;;;;;4967409;28;20047;-67
2024/03/27 13:23:19;;;;;;;10.63;5.55;;;;;;;;;;4966530;28;20073;-67
2024/03/27 13:25:45;;;;;;;9.98;5.00;;;;;;;;;;4963772;28;20048;-66
2024/03/27 13:28:11;;;;;;;10.25;5.15;;;;;;;;;;4968348;28;20122;-67
2024/03/27 13:30:38;;;;;;;10.02;5.07;;;;;;;;;;4965588;28;20035;-68
2024/03/27 13:33:04;;;;;;;9.63;5.55;;;;;;;;;;4966997;28;20392;-67
2024/03/27 13:35:30;;;;;;;10.18;5.47;;;;;;;;;;4954118;28;20054;-67
2024/03/27 13:37:57;;;;;;;7.80;5.20;;;;;;;;;;4967805;28;20042;-66
2024/03/27 13:40:24;;;;;;;8.38;5.80;;;;;;;;;;4953033;28;20059;-66
2024/03/27 13:42:50;;;;;;;8.30;6.05;;;;;;;;;;4970553;28;20129;-66
2024/03/27 13:45:16;;;;;;;12.18;5.97;;;;;;;;;;4965386;28;20043;-67
2024/03/27 13:47:52;;;;;;;10.77;6.20;;;;;;;;;;4965198;28;20062;-67
2024/03/27 13:50:19;;;;;;;8.18;5.32;;;;;;;;;;4951904;28;20133;-79
2024/03/27 13:52:45;;;;;;;8.60;5.38;;;;;;;;;;4968885;28;20046;-67
2024/03/27 13:55:11;;;;;;;7.78;5.25;;;;;;;;;;4953777;28;20054;-67
2024/03/27 13:57:37;;;;;;;8.93;5.47;;;;;;;;;;4953644;28;20042;-67
2024/03/27 14:00:04;;;;;;;9.88;5.68;;;;;;;;;;4951218;28;20486;-67
2024/03/27 14:02:30;;;;;;;12.13;6.68;;;;;;;;;;4972169;28;20109;-67
2024/03/27 14:04:57;;;;;;;8.52;6.05;;;;;;;;;;4969920;28;20073;-67
2024/03/27 14:07:23;;;;;;;10.15;5.35;;;;;;;;;;4967509;28;20136;-67
2024/03/27 14:09:49;;;;;;;7.85;4.90;;;;;;;;;;4953060;28;20086;-67
2024/03/27 14:12:15;;;;;;;10.75;5.70;;;;;;;;;;4952771;28;20109;-67
2024/03/27 14:14:41;;;;;;;9.43;5.70;;;;;;;;;;4958655;28;20566;-67
2024/03/27 14:17:08;;;;;;;10.05;5.30;;;;;;;;;;4952806;28;20142;-67
2024/03/27 14:19:34;;;;;;;7.13;4.90;;;;;;;;;;4952382;28;20035;-67
2024/03/27 14:22:00;;;;;;;10.05;5.68;;;;;;;;;;4950697;28;20050;-66
2024/03/27 14:24:26;;;;;;;9.30;5.15;;;;;;;;;;4957250;28;20057;-66
2024/03/27 14:26:52;;;;;;;8.90;5.32;;;;;;;;;;4963898;28;20152;-67
2024/03/27 14:29:19;;;;;;;7.75;5.15;;;;;;;;;;4966143;28;20415;-66
2024/03/27 14:31:45;;;;;;;7.80;5.75;;;;;;;;;;4947198;28;20067;-67
2024/03/27 14:34:11;;;;;;;11.05;5.65;;;;;;;;;;4966570;28;20129;-66